sensor_id;sensor_type;location;lat;lon;timestamp;temperature;humidity
12315;DHT22;23886;46.614;14.276;2023-06-22T00:00:53;18.90;99.90
12315;DHT22;23886;46.614;14.276;2023-06-22T00:03:21;18.90;99.90
12315;DHT22;23886;46.614;14.276;2023-06-22T00:05:50;18.90;99.90
12315;DHT22;23886;46.614;14.276;2023-06-22T00:08:18;18.90;99.90
12315;DHT22;23886;46.614;14.276;2023-06-22T00:10:46;18.90;99.90
12315;DHT22;23886;46.614;14.276;2023-06-22T00:13:13;19.00;99.90
12315;DHT22;23886;46.614;14.276;2023-06-22T00:15:43;18.90;99.90
12315;DHT22;23886;46.614;14.276;2023-06-22T00:18:10;18.90;99.90
12315;DHT22;23886;46.614;14.276;2023-06-22T00:20:38;19.00;99.90
12315;DHT22;23886;46.614;14.276;2023-06-22T00:23:06;18.90;99.90
12315;DHT22;23886;46.614;14.276;2023-06-22T00:25:34;18.70;99.90
12315;DHT22;23886;46.614;14.276;2023-06-22T00:28:02;18.70;99.90
12315;DHT22;23886;46.614;14.276;2023-06-22T00:30:30;18.70;99.90
12315;DHT22;23886;46.614;14.276;2023-06-22T00:32:58;18.60;99.90
12315;DHT22;23886;46.614;14.276;2023-06-22T00:35:26;18.60;99.90
12315;DHT22;23886;46.614;14.276;2023-06-22T00:37:55;18.70;99.90
12315;DHT22;23886;46.614;14.276;2023-06-22T00:40:27;18.70;99.90
12315;DHT22;23886;46.614;14.276;2023-06-22T00:42:54;18.70;99.90
12315;DHT22;23886;46.614;14.276;2023-06-22T00:45:22;18.60;99.90
12315;DHT22;23886;46.614;14.276;2023-06-22T00:47:50;18.70;99.90
12315;DHT22;23886;46.614;14.276;2023-06-22T00:50:21;18.80;99.90
12315;DHT22;23886;46.614;14.276;2023-06-22T00:52:51;18.90;99.90
12315;DHT22;23886;46.614;14.276;2023-06-22T00:55:19;18.80;99.90
12315;DHT22;23886;46.614;14.276;2023-06-22T00:57:47;18.90;99.90
12315;DHT22;23886;46.614;14.276;2023-06-22T01:00:15;18.90;99.90
12315;DHT22;23886;46.614;14.276;2023-06-22T01:02:46;18.90;99.90
12315;DHT22;23886;46.614;14.276;2023-06-22T01:05:19;18.80;99.90
12315;DHT22;23886;46.614;14.276;2023-06-22T01:07:56;18.80;99.90
12315;DHT22;23886;46.614;14.276;2023-06-22T01:10:29;18.80;99.90
12315;DHT22;23886;46.614;14.276;2023-06-22T01:13:02;18.70;99.90
12315;DHT22;23886;46.614;14.276;2023-06-22T01:15:35;18.60;99.90
12315;DHT22;23886;46.614;14.276;2023-06-22T01:18:04;18.60;99.90
12315;DHT22;23886;46.614;14.276;2023-06-22T01:20:34;18.50;99.90
12315;DHT22;23886;46.614;14.276;2023-06-22T01:23:10;18.50;99.90
12315;DHT22;23886;46.614;14.276;2023-06-22T01:25:46;18.60;99.90
12315;DHT22;23886;46.614;14.276;2023-06-22T01:28:37;18.60;99.90
12315;DHT22;23886;46.614;14.276;2023-06-22T01:31:05;18.40;99.90
12315;DHT22;23886;46.614;14.276;2023-06-22T01:33:37;18.30;99.90
12315;DHT22;23886;46.614;14.276;2023-06-22T01:36:06;18.30;99.90
12315;DHT22;23886;46.614;14.276;2023-06-22T01:38:34;18.30;99.90
12315;DHT22;23886;46.614;14.276;2023-06-22T01:41:02;18.30;99.90
12315;DHT22;23886;46.614;14.276;2023-06-22T01:43:32;18.40;99.90
12315;DHT22;23886;46.614;14.276;2023-06-22T01:46:02;18.40;99.90
12315;DHT22;23886;46.614;14.276;2023-06-22T01:48:29;18.50;99.90
12315;DHT22;23886;46.614;14.276;2023-06-22T01:50:57;18.40;99.90
12315;DHT22;23886;46.614;14.276;2023-06-22T01:53:24;18.40;99.90
12315;DHT22;23886;46.614;14.276;2023-06-22T01:55:51;18.30;99.90
12315;DHT22;23886;46.614;14.276;2023-06-22T01:58:20;18.30;99.90
12315;DHT22;23886;46.614;14.276;2023-06-22T02:00:52;18.30;99.90
12315;DHT22;23886;46.614;14.276;2023-06-22T02:03:24;18.30;99.90
12315;DHT22;23886;46.614;14.276;2023-06-22T02:05:58;18.30;99.90
12315;DHT22;23886;46.614;14.276;2023-06-22T02:08:30;18.20;99.90
12315;DHT22;23886;46.614;14.276;2023-06-22T02:11:00;18.10;99.90
12315;DHT22;23886;46.614;14.276;2023-06-22T02:13:27;18.00;99.90
12315;DHT22;23886;46.614;14.276;2023-06-22T02:15:55;17.90;99.90
12315;DHT22;23886;46.614;14.276;2023-06-22T02:18:24;17.90;99.90
12315;DHT22;23886;46.614;14.276;2023-06-22T02:20:51;18.00;99.90
12315;DHT22;23886;46.614;14.276;2023-06-22T02:23:18;18.00;99.90
12315;DHT22;23886;46.614;14.276;2023-06-22T02:25:45;17.90;99.90
12315;DHT22;23886;46.614;14.276;2023-06-22T02:28:12;17.80;99.90
12315;DHT22;23886;46.614;14.276;2023-06-22T02:30:39;17.80;99.90
12315;DHT22;23886;46.614;14.276;2023-06-22T02:33:06;17.80;99.90
12315;DHT22;23886;46.614;14.276;2023-06-22T02:35:35;17.90;99.90
12315;DHT22;23886;46.614;14.276;2023-06-22T02:38:03;17.80;99.90
12315;DHT22;23886;46.614;14.276;2023-06-22T02:40:31;17.90;99.90
12315;DHT22;23886;46.614;14.276;2023-06-22T02:42:58;17.90;99.90
12315;DHT22;23886;46.614;14.276;2023-06-22T02:45:27;18.00;99.90
12315;DHT22;23886;46.614;14.276;2023-06-22T02:47:55;18.00;99.90
12315;DHT22;23886;46.614;14.276;2023-06-22T02:50:22;17.90;99.90
12315;DHT22;23886;46.614;14.276;2023-06-22T02:52:50;17.80;99.90
12315;DHT22;23886;46.614;14.276;2023-06-22T02:55:18;17.70;99.90
12315;DHT22;23886;46.614;14.276;2023-06-22T02:57:44;17.60;99.90
12315;DHT22;23886;46.614;14.276;2023-06-22T03:00:14;17.60;99.90
12315;DHT22;23886;46.614;14.276;2023-06-22T03:02:43;17.50;99.90
12315;DHT22;23886;46.614;14.276;2023-06-22T03:05:11;17.50;99.90
12315;DHT22;23886;46.614;14.276;2023-06-22T03:07:39;17.60;99.90
12315;DHT22;23886;46.614;14.276;2023-06-22T03:10:09;17.60;99.90
12315;DHT22;23886;46.614;14.276;2023-06-22T03:12:37;17.70;99.90
12315;DHT22;23886;46.614;14.276;2023-06-22T03:15:05;17.70;99.90
12315;DHT22;23886;46.614;14.276;2023-06-22T03:17:33;17.70;99.90
12315;DHT22;23886;46.614;14.276;2023-06-22T03:20:00;17.70;99.90
12315;DHT22;23886;46.614;14.276;2023-06-22T03:22:34;17.70;99.90
12315;DHT22;23886;46.614;14.276;2023-06-22T03:25:01;17.70;99.90
12315;DHT22;23886;46.614;14.276;2023-06-22T03:27:29;17.70;99.90
12315;DHT22;23886;46.614;14.276;2023-06-22T03:29:57;17.80;99.90
12315;DHT22;23886;46.614;14.276;2023-06-22T03:32:24;17.70;99.90
12315;DHT22;23886;46.614;14.276;2023-06-22T03:34:53;17.50;99.90
12315;DHT22;23886;46.614;14.276;2023-06-22T03:37:24;17.60;99.90
12315;DHT22;23886;46.614;14.276;2023-06-22T03:39:51;17.70;99.90
12315;DHT22;23886;46.614;14.276;2023-06-22T03:42:18;17.70;99.90
12315;DHT22;23886;46.614;14.276;2023-06-22T03:44:46;17.70;99.90
12315;DHT22;23886;46.614;14.276;2023-06-22T03:47:13;17.80;99.90
12315;DHT22;23886;46.614;14.276;2023-06-22T03:49:40;17.70;99.90
12315;DHT22;23886;46.614;14.276;2023-06-22T03:52:07;17.60;99.90
12315;DHT22;23886;46.614;14.276;2023-06-22T03:54:36;17.60;99.90
12315;DHT22;23886;46.614;14.276;2023-06-22T03:57:04;17.70;99.90
12315;DHT22;23886;46.614;14.276;2023-06-22T03:59:31;17.80;99.90
12315;DHT22;23886;46.614;14.276;2023-06-22T04:01:59;17.80;99.90
12315;DHT22;23886;46.614;14.276;2023-06-22T04:04:26;17.90;99.90
12315;DHT22;23886;46.614;14.276;2023-06-22T04:06:54;17.90;99.90
12315;DHT22;23886;46.614;14.276;2023-06-22T04:09:21;18.00;99.90
12315;DHT22;23886;46.614;14.276;2023-06-22T04:11:48;18.00;99.90
12315;DHT22;23886;46.614;14.276;2023-06-22T04:14:15;17.90;99.90
12315;DHT22;23886;46.614;14.276;2023-06-22T04:16:42;17.80;99.90
12315;DHT22;23886;46.614;14.276;2023-06-22T04:19:10;17.90;99.90
12315;DHT22;23886;46.614;14.276;2023-06-22T04:21:41;17.90;99.90
12315;DHT22;23886;46.614;14.276;2023-06-22T04:24:08;17.90;99.90
12315;DHT22;23886;46.614;14.276;2023-06-22T04:26:35;18.00;99.90
12315;DHT22;23886;46.614;14.276;2023-06-22T04:29:03;18.10;99.90
12315;DHT22;23886;46.614;14.276;2023-06-22T04:31:31;18.30;99.90
12315;DHT22;23886;46.614;14.276;2023-06-22T04:34:03;18.40;99.90
12315;DHT22;23886;46.614;14.276;2023-06-22T04:36:34;18.40;99.90
12315;DHT22;23886;46.614;14.276;2023-06-22T04:39:04;18.40;99.90
12315;DHT22;23886;46.614;14.276;2023-06-22T04:41:32;18.50;99.90
12315;DHT22;23886;46.614;14.276;2023-06-22T04:44:10;18.50;99.90
12315;DHT22;23886;46.614;14.276;2023-06-22T04:46:38;18.60;99.90
12315;DHT22;23886;46.614;14.276;2023-06-22T04:49:06;18.70;99.90
12315;DHT22;23886;46.614;14.276;2023-06-22T04:51:41;18.70;99.90
12315;DHT22;23886;46.614;14.276;2023-06-22T04:54:09;18.80;99.90
12315;DHT22;23886;46.614;14.276;2023-06-22T04:56:36;18.90;99.90
12315;DHT22;23886;46.614;14.276;2023-06-22T04:59:07;19.00;99.90
12315;DHT22;23886;46.614;14.276;2023-06-22T05:01:38;19.20;99.90
12315;DHT22;23886;46.614;14.276;2023-06-22T05:04:05;19.30;99.90
12315;DHT22;23886;46.614;14.276;2023-06-22T05:06:33;19.40;99.90
12315;DHT22;23886;46.614;14.276;2023-06-22T05:09:01;19.50;99.90
12315;DHT22;23886;46.614;14.276;2023-06-22T05:11:30;19.40;99.90
12315;DHT22;23886;46.614;14.276;2023-06-22T05:13:57;19.50;99.90
12315;DHT22;23886;46.614;14.276;2023-06-22T05:16:24;19.50;99.90
12315;DHT22;23886;46.614;14.276;2023-06-22T05:18:52;19.50;99.90
12315;DHT22;23886;46.614;14.276;2023-06-22T05:21:22;19.60;99.90
12315;DHT22;23886;46.614;14.276;2023-06-22T05:23:50;19.70;99.90
12315;DHT22;23886;46.614;14.276;2023-06-22T05:26:18;19.70;99.90
12315;DHT22;23886;46.614;14.276;2023-06-22T05:28:46;19.80;99.90
12315;DHT22;23886;46.614;14.276;2023-06-22T05:31:13;19.90;99.90
12315;DHT22;23886;46.614;14.276;2023-06-22T05:33:40;19.90;99.90
12315;DHT22;23886;46.614;14.276;2023-06-22T05:36:08;20.00;99.90
12315;DHT22;23886;46.614;14.276;2023-06-22T05:38:35;20.10;99.90
12315;DHT22;23886;46.614;14.276;2023-06-22T05:41:02;20.10;99.90
12315;DHT22;23886;46.614;14.276;2023-06-22T05:43:31;20.20;99.90
12315;DHT22;23886;46.614;14.276;2023-06-22T05:46:00;20.20;99.90
12315;DHT22;23886;46.614;14.276;2023-06-22T05:48:27;20.20;99.90
12315;DHT22;23886;46.614;14.276;2023-06-22T05:50:54;20.30;99.90
12315;DHT22;23886;46.614;14.276;2023-06-22T05:53:21;20.30;99.90
12315;DHT22;23886;46.614;14.276;2023-06-22T05:55:48;20.40;99.90
12315;DHT22;23886;46.614;14.276;2023-06-22T05:58:15;20.40;99.90
12315;DHT22;23886;46.614;14.276;2023-06-22T06:00:44;20.40;99.90
12315;DHT22;23886;46.614;14.276;2023-06-22T06:03:12;20.50;99.90
12315;DHT22;23886;46.614;14.276;2023-06-22T06:05:43;20.60;99.90
12315;DHT22;23886;46.614;14.276;2023-06-22T06:08:10;20.60;99.90
12315;DHT22;23886;46.614;14.276;2023-06-22T06:10:37;20.70;99.90
12315;DHT22;23886;46.614;14.276;2023-06-22T06:13:04;20.70;99.90
12315;DHT22;23886;46.614;14.276;2023-06-22T06:15:32;20.80;99.90
12315;DHT22;23886;46.614;14.276;2023-06-22T06:18:01;20.80;99.90
12315;DHT22;23886;46.614;14.276;2023-06-22T06:20:30;20.90;99.90
12315;DHT22;23886;46.614;14.276;2023-06-22T06:22:58;21.00;99.90
12315;DHT22;23886;46.614;14.276;2023-06-22T06:25:25;21.00;99.90
12315;DHT22;23886;46.614;14.276;2023-06-22T06:27:52;20.90;99.90
12315;DHT22;23886;46.614;14.276;2023-06-22T06:30:20;20.90;99.90
12315;DHT22;23886;46.614;14.276;2023-06-22T06:32:49;21.00;99.90
12315;DHT22;23886;46.614;14.276;2023-06-22T06:35:17;21.10;99.90
12315;DHT22;23886;46.614;14.276;2023-06-22T06:37:47;21.10;99.90
12315;DHT22;23886;46.614;14.276;2023-06-22T06:40:15;21.30;99.90
12315;DHT22;23886;46.614;14.276;2023-06-22T06:42:43;21.30;99.90
12315;DHT22;23886;46.614;14.276;2023-06-22T06:45:11;21.40;99.90
12315;DHT22;23886;46.614;14.276;2023-06-22T06:47:38;21.50;99.90
12315;DHT22;23886;46.614;14.276;2023-06-22T06:50:06;21.60;99.90
12315;DHT22;23886;46.614;14.276;2023-06-22T06:52:35;21.60;99.90
12315;DHT22;23886;46.614;14.276;2023-06-22T06:55:03;21.90;99.90
12315;DHT22;23886;46.614;14.276;2023-06-22T06:57:33;22.00;99.90
12315;DHT22;23886;46.614;14.276;2023-06-22T07:00:00;22.00;99.90
12315;DHT22;23886;46.614;14.276;2023-06-22T07:02:33;22.10;99.90
12315;DHT22;23886;46.614;14.276;2023-06-22T07:05:00;22.20;99.90
12315;DHT22;23886;46.614;14.276;2023-06-22T07:07:29;22.30;99.90
12315;DHT22;23886;46.614;14.276;2023-06-22T07:09:58;22.40;99.90
12315;DHT22;23886;46.614;14.276;2023-06-22T07:12:25;22.50;99.90
12315;DHT22;23886;46.614;14.276;2023-06-22T07:14:52;22.40;99.90
12315;DHT22;23886;46.614;14.276;2023-06-22T07:17:19;22.40;99.90
12315;DHT22;23886;46.614;14.276;2023-06-22T07:19:46;22.50;99.90
12315;DHT22;23886;46.614;14.276;2023-06-22T07:22:13;22.60;99.90
12315;DHT22;23886;46.614;14.276;2023-06-22T07:24:40;22.70;99.90
12315;DHT22;23886;46.614;14.276;2023-06-22T07:27:08;22.60;99.90
12315;DHT22;23886;46.614;14.276;2023-06-22T07:29:37;22.60;99.90
12315;DHT22;23886;46.614;14.276;2023-06-22T07:32:06;22.50;99.90
12315;DHT22;23886;46.614;14.276;2023-06-22T07:34:33;22.80;99.90
12315;DHT22;23886;46.614;14.276;2023-06-22T07:37:00;22.90;99.90
12315;DHT22;23886;46.614;14.276;2023-06-22T07:39:27;23.00;99.90
12315;DHT22;23886;46.614;14.276;2023-06-22T07:41:54;23.10;99.90
12315;DHT22;23886;46.614;14.276;2023-06-22T07:44:23;23.20;99.90
12315;DHT22;23886;46.614;14.276;2023-06-22T07:46:50;23.30;99.90
12315;DHT22;23886;46.614;14.276;2023-06-22T07:49:17;23.40;99.90
12315;DHT22;23886;46.614;14.276;2023-06-22T07:51:44;23.50;99.90
12315;DHT22;23886;46.614;14.276;2023-06-22T07:54:11;23.60;99.90
12315;DHT22;23886;46.614;14.276;2023-06-22T07:56:38;23.70;99.90
12315;DHT22;23886;46.614;14.276;2023-06-22T07:59:05;23.80;99.90
12315;DHT22;23886;46.614;14.276;2023-06-22T08:01:33;23.80;99.90
12315;DHT22;23886;46.614;14.276;2023-06-22T08:04:00;23.90;99.90
12315;DHT22;23886;46.614;14.276;2023-06-22T08:06:30;24.00;99.90
12315;DHT22;23886;46.614;14.276;2023-06-22T08:08:57;24.10;99.90
12315;DHT22;23886;46.614;14.276;2023-06-22T08:11:24;24.20;99.90
12315;DHT22;23886;46.614;14.276;2023-06-22T08:13:51;24.30;99.90
12315;DHT22;23886;46.614;14.276;2023-06-22T08:16:20;24.40;99.90
12315;DHT22;23886;46.614;14.276;2023-06-22T08:18:48;24.40;99.90
12315;DHT22;23886;46.614;14.276;2023-06-22T08:21:15;24.30;99.90
12315;DHT22;23886;46.614;14.276;2023-06-22T08:23:43;24.40;99.90
12315;DHT22;23886;46.614;14.276;2023-06-22T08:26:10;24.50;99.90
12315;DHT22;23886;46.614;14.276;2023-06-22T08:28:36;24.50;99.90
12315;DHT22;23886;46.614;14.276;2023-06-22T08:31:04;24.60;99.90
12315;DHT22;23886;46.614;14.276;2023-06-22T08:33:31;24.70;99.90
12315;DHT22;23886;46.614;14.276;2023-06-22T08:35:59;24.80;99.90
12315;DHT22;23886;46.614;14.276;2023-06-22T08:38:26;24.90;99.90
12315;DHT22;23886;46.614;14.276;2023-06-22T08:40:53;24.80;99.90
12315;DHT22;23886;46.614;14.276;2023-06-22T08:43:20;24.80;99.90
12315;DHT22;23886;46.614;14.276;2023-06-22T08:45:47;25.00;99.90
12315;DHT22;23886;46.614;14.276;2023-06-22T08:48:14;25.20;99.90
12315;DHT22;23886;46.614;14.276;2023-06-22T08:50:41;25.30;99.90
12315;DHT22;23886;46.614;14.276;2023-06-22T08:53:09;25.60;99.90
12315;DHT22;23886;46.614;14.276;2023-06-22T08:55:36;25.80;99.90
12315;DHT22;23886;46.614;14.276;2023-06-22T08:58:03;25.90;99.90
12315;DHT22;23886;46.614;14.276;2023-06-22T09:00:30;25.90;99.90
12315;DHT22;23886;46.614;14.276;2023-06-22T09:03:00;25.90;99.90
12315;DHT22;23886;46.614;14.276;2023-06-22T09:05:27;26.20;99.90
12315;DHT22;23886;46.614;14.276;2023-06-22T09:07:55;26.00;99.90
12315;DHT22;23886;46.614;14.276;2023-06-22T09:10:25;25.90;99.90
12315;DHT22;23886;46.614;14.276;2023-06-22T09:12:52;26.00;99.90
12315;DHT22;23886;46.614;14.276;2023-06-22T09:15:19;26.20;99.90
12315;DHT22;23886;46.614;14.276;2023-06-22T09:17:47;26.30;99.90
12315;DHT22;23886;46.614;14.276;2023-06-22T09:20:14;26.50;99.90
12315;DHT22;23886;46.614;14.276;2023-06-22T09:22:41;26.70;99.90
12315;DHT22;23886;46.614;14.276;2023-06-22T09:25:09;27.00;99.90
12315;DHT22;23886;46.614;14.276;2023-06-22T09:27:37;27.10;99.90
12315;DHT22;23886;46.614;14.276;2023-06-22T09:30:05;27.20;99.90
12315;DHT22;23886;46.614;14.276;2023-06-22T09:32:33;27.10;99.90
12315;DHT22;23886;46.614;14.276;2023-06-22T09:35:04;27.20;99.90
12315;DHT22;23886;46.614;14.276;2023-06-22T09:37:32;27.30;99.90
12315;DHT22;23886;46.614;14.276;2023-06-22T09:39:59;27.50;99.90
12315;DHT22;23886;46.614;14.276;2023-06-22T09:42:26;27.50;99.90
12315;DHT22;23886;46.614;14.276;2023-06-22T09:44:54;27.70;99.90
12315;DHT22;23886;46.614;14.276;2023-06-22T09:47:21;27.80;99.90
12315;DHT22;23886;46.614;14.276;2023-06-22T09:49:48;28.10;99.90
12315;DHT22;23886;46.614;14.276;2023-06-22T09:52:15;28.40;99.90
12315;DHT22;23886;46.614;14.276;2023-06-22T09:54:42;28.30;99.90
12315;DHT22;23886;46.614;14.276;2023-06-22T09:57:09;28.50;99.90
12315;DHT22;23886;46.614;14.276;2023-06-22T09:59:36;28.50;99.90
12315;DHT22;23886;46.614;14.276;2023-06-22T10:02:07;28.70;99.90
12315;DHT22;23886;46.614;14.276;2023-06-22T10:04:34;29.00;99.90
12315;DHT22;23886;46.614;14.276;2023-06-22T10:07:01;29.20;99.90
12315;DHT22;23886;46.614;14.276;2023-06-22T10:09:28;29.40;99.90
12315;DHT22;23886;46.614;14.276;2023-06-22T10:11:55;29.30;99.90
12315;DHT22;23886;46.614;14.276;2023-06-22T10:14:22;28.90;99.90
12315;DHT22;23886;46.614;14.276;2023-06-22T10:16:52;28.90;99.90
12315;DHT22;23886;46.614;14.276;2023-06-22T10:19:20;28.80;99.90
12315;DHT22;23886;46.614;14.276;2023-06-22T10:21:47;28.60;99.90
12315;DHT22;23886;46.614;14.276;2023-06-22T10:24:14;28.30;99.90
12315;DHT22;23886;46.614;14.276;2023-06-22T10:26:41;28.50;99.90
12315;DHT22;23886;46.614;14.276;2023-06-22T10:29:08;28.50;99.90
12315;DHT22;23886;46.614;14.276;2023-06-22T10:31:35;28.40;99.90
12315;DHT22;23886;46.614;14.276;2023-06-22T10:34:02;28.40;99.90
12315;DHT22;23886;46.614;14.276;2023-06-22T10:36:30;28.30;99.90
12315;DHT22;23886;46.614;14.276;2023-06-22T10:38:57;28.30;99.90
12315;DHT22;23886;46.614;14.276;2023-06-22T10:41:25;28.50;99.90
12315;DHT22;23886;46.614;14.276;2023-06-22T10:43:54;28.50;99.90
12315;DHT22;23886;46.614;14.276;2023-06-22T10:46:24;28.40;99.90
12315;DHT22;23886;46.614;14.276;2023-06-22T10:48:52;28.50;99.90
12315;DHT22;23886;46.614;14.276;2023-06-22T10:51:20;28.10;99.90
12315;DHT22;23886;46.614;14.276;2023-06-22T10:53:49;28.30;99.90
12315;DHT22;23886;46.614;14.276;2023-06-22T10:56:17;28.80;99.90
12315;DHT22;23886;46.614;14.276;2023-06-22T10:58:44;28.80;99.90
12315;DHT22;23886;46.614;14.276;2023-06-22T11:01:11;28.50;99.90
12315;DHT22;23886;46.614;14.276;2023-06-22T11:03:38;28.80;99.90
12315;DHT22;23886;46.614;14.276;2023-06-22T11:06:05;29.00;99.90
12315;DHT22;23886;46.614;14.276;2023-06-22T11:08:32;29.20;99.90
12315;DHT22;23886;46.614;14.276;2023-06-22T11:11:01;29.40;99.90
12315;DHT22;23886;46.614;14.276;2023-06-22T11:13:28;30.10;99.90
12315;DHT22;23886;46.614;14.276;2023-06-22T11:15:55;30.40;99.90
12315;DHT22;23886;46.614;14.276;2023-06-22T11:18:22;30.50;99.90
12315;DHT22;23886;46.614;14.276;2023-06-22T11:20:49;30.50;99.90
12315;DHT22;23886;46.614;14.276;2023-06-22T11:23:16;30.60;99.90
12315;DHT22;23886;46.614;14.276;2023-06-22T11:25:43;30.90;99.90
12315;DHT22;23886;46.614;14.276;2023-06-22T11:28:11;30.80;99.90
12315;DHT22;23886;46.614;14.276;2023-06-22T11:30:38;30.30;99.90
12315;DHT22;23886;46.614;14.276;2023-06-22T11:33:05;30.60;99.90
12315;DHT22;23886;46.614;14.276;2023-06-22T11:35:32;30.80;99.90
12315;DHT22;23886;46.614;14.276;2023-06-22T11:37:59;31.20;99.90
12315;DHT22;23886;46.614;14.276;2023-06-22T11:40:26;31.10;99.90
12315;DHT22;23886;46.614;14.276;2023-06-22T11:42:53;31.20;99.90
12315;DHT22;23886;46.614;14.276;2023-06-22T11:45:21;31.70;99.90
12315;DHT22;23886;46.614;14.276;2023-06-22T11:47:48;32.10;99.90
12315;DHT22;23886;46.614;14.276;2023-06-22T11:50:15;32.60;99.90
12315;DHT22;23886;46.614;14.276;2023-06-22T11:52:42;33.10;99.90
12315;DHT22;23886;46.614;14.276;2023-06-22T11:55:09;33.10;99.90
12315;DHT22;23886;46.614;14.276;2023-06-22T11:57:37;33.00;99.90
12315;DHT22;23886;46.614;14.276;2023-06-22T12:00:05;33.40;99.80
12315;DHT22;23886;46.614;14.276;2023-06-22T12:02:44;33.50;98.60
12315;DHT22;23886;46.614;14.276;2023-06-22T12:05:11;33.80;98.70
12315;DHT22;23886;46.614;14.276;2023-06-22T12:07:38;33.40;99.10
12315;DHT22;23886;46.614;14.276;2023-06-22T12:10:06;33.30;99.80
12315;DHT22;23886;46.614;14.276;2023-06-22T12:12:33;33.40;98.00
12315;DHT22;23886;46.614;14.276;2023-06-22T12:15:00;33.30;99.40
12315;DHT22;23886;46.614;14.276;2023-06-22T12:17:30;34.10;97.90
12315;DHT22;23886;46.614;14.276;2023-06-22T12:19:58;34.70;97.60
12315;DHT22;23886;46.614;14.276;2023-06-22T12:22:25;35.30;96.30
12315;DHT22;23886;46.614;14.276;2023-06-22T12:24:52;35.30;96.30
12315;DHT22;23886;46.614;14.276;2023-06-22T12:27:19;34.90;95.90
12315;DHT22;23886;46.614;14.276;2023-06-22T12:29:46;34.50;96.80
12315;DHT22;23886;46.614;14.276;2023-06-22T12:32:14;34.80;97.30
12315;DHT22;23886;46.614;14.276;2023-06-22T12:34:41;35.20;97.90
12315;DHT22;23886;46.614;14.276;2023-06-22T12:37:10;35.40;96.20
12315;DHT22;23886;46.614;14.276;2023-06-22T12:39:39;35.10;95.40
12315;DHT22;23886;46.614;14.276;2023-06-22T12:42:07;34.90;97.30
12315;DHT22;23886;46.614;14.276;2023-06-22T12:44:35;36.00;96.20
12315;DHT22;23886;46.614;14.276;2023-06-22T12:47:02;35.70;94.90
12315;DHT22;23886;46.614;14.276;2023-06-22T12:49:29;36.10;94.40
12315;DHT22;23886;46.614;14.276;2023-06-22T12:51:56;37.10;92.60
12315;DHT22;23886;46.614;14.276;2023-06-22T12:54:24;37.20;91.60
12315;DHT22;23886;46.614;14.276;2023-06-22T12:56:51;37.10;91.50
12315;DHT22;23886;46.614;14.276;2023-06-22T12:59:18;37.00;91.50
12315;DHT22;23886;46.614;14.276;2023-06-22T13:01:45;37.00;90.60
12315;DHT22;23886;46.614;14.276;2023-06-22T13:04:12;36.20;91.80
12315;DHT22;23886;46.614;14.276;2023-06-22T13:06:40;36.00;92.50
12315;DHT22;23886;46.614;14.276;2023-06-22T13:09:09;37.40;91.60
12315;DHT22;23886;46.614;14.276;2023-06-22T13:11:37;38.30;90.90
12315;DHT22;23886;46.614;14.276;2023-06-22T13:14:04;38.70;87.80
12315;DHT22;23886;46.614;14.276;2023-06-22T13:16:31;38.80;90.10
12315;DHT22;23886;46.614;14.276;2023-06-22T13:18:58;38.40;87.10
12315;DHT22;23886;46.614;14.276;2023-06-22T13:21:25;37.70;89.90
12315;DHT22;23886;46.614;14.276;2023-06-22T13:23:52;37.30;90.10
12315;DHT22;23886;46.614;14.276;2023-06-22T13:26:21;36.60;92.40
12315;DHT22;23886;46.614;14.276;2023-06-22T13:28:49;36.20;91.40
12315;DHT22;23886;46.614;14.276;2023-06-22T13:31:16;35.00;95.20
12315;DHT22;23886;46.614;14.276;2023-06-22T13:33:43;34.50;97.30
12315;DHT22;23886;46.614;14.276;2023-06-22T13:36:13;35.20;97.30
12315;DHT22;23886;46.614;14.276;2023-06-22T13:38:40;35.70;93.00
12315;DHT22;23886;46.614;14.276;2023-06-22T13:41:07;35.70;91.80
12315;DHT22;23886;46.614;14.276;2023-06-22T13:43:34;35.90;92.50
12315;DHT22;23886;46.614;14.276;2023-06-22T13:46:02;36.10;98.00
12315;DHT22;23886;46.614;14.276;2023-06-22T13:48:29;37.10;92.30
12315;DHT22;23886;46.614;14.276;2023-06-22T13:50:57;37.30;90.60
12315;DHT22;23886;46.614;14.276;2023-06-22T13:53:24;37.90;86.70
12315;DHT22;23886;46.614;14.276;2023-06-22T13:55:52;36.90;90.80
12315;DHT22;23886;46.614;14.276;2023-06-22T13:58:19;37.10;84.80
12315;DHT22;23886;46.614;14.276;2023-06-22T14:00:46;36.00;93.80
12315;DHT22;23886;46.614;14.276;2023-06-22T14:03:15;35.10;94.80
12315;DHT22;23886;46.614;14.276;2023-06-22T14:05:42;34.20;97.20
12315;DHT22;23886;46.614;14.276;2023-06-22T14:08:09;34.00;94.50
12315;DHT22;23886;46.614;14.276;2023-06-22T14:10:36;34.10;96.20
12315;DHT22;23886;46.614;14.276;2023-06-22T14:13:03;34.40;95.40
12315;DHT22;23886;46.614;14.276;2023-06-22T14:15:31;35.00;94.40
12315;DHT22;23886;46.614;14.276;2023-06-22T14:17:58;34.80;91.90
12315;DHT22;23886;46.614;14.276;2023-06-22T14:20:27;35.70;91.10
12315;DHT22;23886;46.614;14.276;2023-06-22T14:22:53;36.40;88.80
12315;DHT22;23886;46.614;14.276;2023-06-22T14:25:20;37.40;84.90
12315;DHT22;23886;46.614;14.276;2023-06-22T14:27:47;37.40;87.80
12315;DHT22;23886;46.614;14.276;2023-06-22T14:30:15;36.80;90.10
12315;DHT22;23886;46.614;14.276;2023-06-22T14:32:43;38.70;82.90
12315;DHT22;23886;46.614;14.276;2023-06-22T14:35:11;39.00;78.30
12315;DHT22;23886;46.614;14.276;2023-06-22T14:37:39;37.50;87.90
12315;DHT22;23886;46.614;14.276;2023-06-22T14:40:07;38.60;79.60
12315;DHT22;23886;46.614;14.276;2023-06-22T14:42:34;37.90;78.50
12315;DHT22;23886;46.614;14.276;2023-06-22T14:45:01;38.60;83.30
12315;DHT22;23886;46.614;14.276;2023-06-22T14:47:28;39.60;86.30
12315;DHT22;23886;46.614;14.276;2023-06-22T14:49:55;39.40;75.70
12315;DHT22;23886;46.614;14.276;2023-06-22T14:52:22;39.60;83.80
12315;DHT22;23886;46.614;14.276;2023-06-22T14:54:50;39.90;81.20
12315;DHT22;23886;46.614;14.276;2023-06-22T14:57:18;39.90;75.00
12315;DHT22;23886;46.614;14.276;2023-06-22T14:59:45;40.80;74.90
12315;DHT22;23886;46.614;14.276;2023-06-22T15:02:13;40.90;75.10
12315;DHT22;23886;46.614;14.276;2023-06-22T15:04:40;39.80;81.30
12315;DHT22;23886;46.614;14.276;2023-06-22T15:07:07;39.90;79.10
12315;DHT22;23886;46.614;14.276;2023-06-22T15:09:34;39.50;76.10
12315;DHT22;23886;46.614;14.276;2023-06-22T15:12:02;39.20;82.80
12315;DHT22;23886;46.614;14.276;2023-06-22T15:14:31;39.40;85.00
12315;DHT22;23886;46.614;14.276;2023-06-22T15:16:58;38.20;88.60
12315;DHT22;23886;46.614;14.276;2023-06-22T15:19:25;38.00;87.50